Time;durP1;ratioP1;P1;durP2;ratioP2;P2;SDS_P1;SDS_P2;PMS_P1;PMS_P2;Temp;Humidity;BMP_temperature;BMP_pressure;BME280_temperature;BME280_humidity;BME280_pressure;Samples;Min_cycle;Max_cycle;Signal;HPM_P1;HPM_P2
2021/07/29 00:01:40;;;;;;;0.82;0.80;;;16.20;99.90;;;;;;4984636;28;20220;-85
2021/07/29 00:04:06;;;;;;;0.98;0.98;;;16.20;99.90;;;;;;4980902;28;20267;-86
2021/07/29 00:06:31;;;;;;;2.47;1.40;;;16.20;99.90;;;;;;4974535;28;20255;-87
2021/07/29 00:08:57;;;;;;;0.73;0.73;;;16.20;99.90;;;;;;4974987;28;20205;-86
2021/07/29 00:11:23;;;;;;;1.33;1.05;;;16.20;99.90;;;;;;4974139;28;20256;-86
2021/07/29 00:13:57;;;;;;;0.93;0.93;;;16.20;99.90;;;;;;4974241;28;20695;-86
2021/07/29 00:16:23;;;;;;;1.13;0.82;;;16.20;99.90;;;;;;4973405;28;20196;-86
2021/07/29 00:19:05;;;;;;;0.63;0.63;;;16.20;99.90;;;;;;4972215;28;20283;-87
2021/07/29 00:21:35;;;;;;;1.00;0.90;;;16.20;99.90;;;;;;4974463;28;20236;-87
2021/07/29 00:24:02;;;;;;;0.82;0.82;;;16.20;99.90;;;;;;4975670;28;20232;-86
2021/07/29 00:26:28;;;;;;;1.30;1.13;;;16.20;99.90;;;;;;4984104;28;20207;-86
2021/07/29 00:28:54;;;;;;;2.00;1.30;;;16.20;99.90;;;;;;4995611;28;20270;-86
2021/07/29 00:31:21;;;;;;;1.45;0.95;;;16.20;99.90;;;;;;4974431;28;20208;-85
2021/07/29 00:33:46;;;;;;;1.80;1.15;;;16.20;99.90;;;;;;4974226;28;20207;-86
2021/07/29 00:36:24;;;;;;;0.77;0.73;;;16.20;99.90;;;;;;4972404;28;20204;-86
2021/07/29 00:38:50;;;;;;;1.83;1.23;;;16.20;99.90;;;;;;4975344;28;20196;-85
2021/07/29 00:41:16;;;;;;;1.27;1.17;;;16.20;99.90;;;;;;4969958;28;20711;-86
2021/07/29 00:43:42;;;;;;;1.05;1.00;;;16.20;99.90;;;;;;4962858;28;20200;-86
2021/07/29 00:46:09;;;;;;;4.88;1.75;;;16.20;99.90;;;;;;4990261;28;20679;-86
2021/07/29 00:48:34;;;;;;;1.55;0.73;;;16.10;99.90;;;;;;4972731;28;20208;-85
2021/07/29 00:51:00;;;;;;;2.88;0.90;;;16.10;99.90;;;;;;4973855;28;20219;-86
2021/07/29 00:53:28;;;;;;;1.38;0.85;;;16.10;99.90;;;;;;4971883;28;20200;-86
2021/07/29 00:55:56;;;;;;;3.05;1.95;;;16.10;99.90;;;;;;4973066;28;20262;-86
2021/07/29 00:58:22;;;;;;;0.63;0.63;;;16.10;99.90;;;;;;4973689;28;20770;-85
2021/07/29 01:00:47;;;;;;;1.45;1.13;;;16.00;99.90;;;;;;4972544;28;20208;-84
2021/07/29 01:03:13;;;;;;;0.80;0.80;;;16.00;99.90;;;;;;4971492;28;20298;-84
2021/07/29 01:05:39;;;;;;;1.67;1.35;;;15.90;99.90;;;;;;4975073;28;20208;-84
2021/07/29 01:08:05;;;;;;;0.60;0.60;;;15.90;99.90;;;;;;4971856;28;20223;-84
2021/07/29 01:10:30;;;;;;;0.73;0.65;;;16.00;99.90;;;;;;4957960;28;20212;-84
2021/07/29 01:12:56;;;;;;;0.93;0.93;;;16.00;99.90;;;;;;4974540;28;20215;-84
2021/07/29 01:15:22;;;;;;;2.05;1.67;;;16.00;99.90;;;;;;4973321;28;20238;-85
2021/07/29 01:17:47;;;;;;;1.75;1.30;;;16.00;99.90;;;;;;4959788;28;20204;-85
2021/07/29 01:20:18;;;;;;;0.75;0.75;;;16.00;99.90;;;;;;4986985;28;20200;-84
2021/07/29 01:22:44;;;;;;;1.38;1.27;;;16.00;99.90;;;;;;4975033;28;20207;-84
2021/07/29 01:25:10;;;;;;;2.85;1.25;;;16.00;99.90;;;;;;4979571;28;20395;-85
2021/07/29 01:27:37;;;;;;;0.70;0.70;;;16.00;99.90;;;;;;4979810;28;20216;-83
2021/07/29 01:30:03;;;;;;;6.25;1.55;;;16.00;99.90;;;;;;4978456;28;20211;-84
2021/07/29 01:32:30;;;;;;;0.57;0.57;;;16.00;99.90;;;;;;4978421;28;20740;-83
2021/07/29 01:34:59;;;;;;;0.70;0.70;;;16.10;99.90;;;;;;4975934;28;20197;-84
2021/07/29 01:37:25;;;;;;;0.60;0.60;;;16.10;99.90;;;;;;4971792;28;20689;-85
2021/07/29 01:39:51;;;;;;;1.45;0.95;;;16.10;99.90;;;;;;4975762;28;20210;-85
2021/07/29 01:42:17;;;;;;;0.55;0.55;;;16.10;99.90;;;;;;4978090;28;20243;-84
2021/07/29 01:44:43;;;;;;;1.75;0.98;;;16.10;99.90;;;;;;4978122;28;20214;-83
2021/07/29 01:47:09;;;;;;;5.00;0.90;;;16.10;99.90;;;;;;4978682;28;20204;-84
2021/07/29 01:49:34;;;;;;;1.08;1.02;;;16.10;99.90;;;;;;4976553;28;20240;-84
2021/07/29 01:52:00;;;;;;;0.50;0.50;;;16.00;99.90;;;;;;4975816;28;20274;-83
2021/07/29 01:54:26;;;;;;;0.43;0.43;;;16.00;99.90;;;;;;4975835;28;20203;-84
2021/07/29 01:56:51;;;;;;;0.55;0.55;;;16.00;99.90;;;;;;4976286;28;20204;-82
2021/07/29 01:59:17;;;;;;;1.55;1.27;;;16.00;99.90;;;;;;4992181;28;20236;-84
2021/07/29 02:01:44;;;;;;;0.43;0.43;;;16.00;99.90;;;;;;4973382;28;20235;-82
2021/07/29 02:04:10;;;;;;;1.20;0.88;;;16.00;99.90;;;;;;4975533;28;20738;-83
2021/07/29 02:06:37;;;;;;;0.50;0.50;;;16.00;99.90;;;;;;4976903;28;20235;-82
2021/07/29 02:09:04;;;;;;;0.82;0.77;;;16.00;99.90;;;;;;4977404;28;20276;-84
2021/07/29 02:11:31;;;;;;;1.98;0.85;;;16.00;99.90;;;;;;4976264;28;20208;-83
2021/07/29 02:13:58;;;;;;;1.40;0.88;;;15.90;99.90;;;;;;4977192;28;20204;-84
2021/07/29 02:16:26;;;;;;;0.68;0.68;;;15.90;99.90;;;;;;4978072;28;20208;-84
2021/07/29 02:18:52;;;;;;;0.95;0.60;;;15.90;99.90;;;;;;4983426;28;20565;-84
2021/07/29 02:21:18;;;;;;;0.65;0.63;;;15.90;99.90;;;;;;4980295;28;20267;-84
2021/07/29 02:23:45;;;;;;;0.50;0.50;;;15.90;99.90;;;;;;4976780;28;20208;-83
2021/07/29 02:26:11;;;;;;;0.77;0.77;;;15.90;99.90;;;;;;4977789;28;20664;-84
2021/07/29 02:28:37;;;;;;;0.90;0.85;;;15.90;99.90;;;;;;4976274;28;20204;-83
2021/07/29 02:31:03;;;;;;;1.48;0.93;;;15.90;99.90;;;;;;4977017;28;20223;-84
2021/07/29 02:33:29;;;;;;;0.80;0.80;;;15.80;99.90;;;;;;4973962;28;20299;-83
2021/07/29 02:35:55;;;;;;;3.05;0.63;;;15.80;99.90;;;;;;4975929;28;20287;-83
2021/07/29 02:38:20;;;;;;;0.45;0.45;;;15.70;99.90;;;;;;4970250;28;20215;-83
2021/07/29 02:40:46;;;;;;;1.25;1.15;;;15.70;99.90;;;;;;4981245;28;20620;-83
2021/07/29 02:43:12;;;;;;;0.60;0.60;;;15.60;99.90;;;;;;4989500;28;20207;-83
2021/07/29 02:45:37;;;;;;;0.85;0.82;;;15.60;99.90;;;;;;4976983;28;20208;-83
2021/07/29 02:48:03;;;;;;;0.40;0.40;;;15.60;99.90;;;;;;4977524;28;20630;-84
2021/07/29 02:50:29;;;;;;;2.77;1.43;;;15.60;99.90;;;;;;4976279;28;20211;-83
2021/07/29 02:52:54;;;;;;;0.60;0.60;;;15.70;99.90;;;;;;4976195;28;20607;-83
2021/07/29 02:55:21;;;;;;;0.90;0.80;;;15.70;99.90;;;;;;4975018;28;20216;-83
2021/07/29 02:57:47;;;;;;;0.85;0.85;;;15.80;99.90;;;;;;4977491;28;20195;-84
2021/07/29 03:00:13;;;;;;;24.00;1.77;;;15.80;99.90;;;;;;4991687;28;20335;-84
2021/07/29 03:02:38;;;;;;;1.10;1.00;;;15.80;99.90;;;;;;4994020;28;20234;-83
2021/07/29 03:05:04;;;;;;;1.17;1.08;;;15.80;99.90;;;;;;4988838;28;20259;-83
2021/07/29 03:07:31;;;;;;;1.17;1.08;;;15.90;99.90;;;;;;4976932;28;20246;-84
2021/07/29 03:09:57;;;;;;;1.77;1.00;;;15.90;99.90;;;;;;4977090;28;20216;-83
2021/07/29 03:12:23;;;;;;;0.60;0.50;;;15.80;99.90;;;;;;4977353;28;20216;-83
2021/07/29 03:14:49;;;;;;;1.38;1.27;;;15.80;99.90;;;;;;4975801;28;20212;-84
2021/07/29 03:17:14;;;;;;;1.05;0.95;;;15.80;99.90;;;;;;4991004;28;20680;-84
2021/07/29 03:19:40;;;;;;;0.50;0.50;;;15.80;99.90;;;;;;4974822;28;20263;-84
2021/07/29 03:22:06;;;;;;;1.38;0.80;;;15.80;99.90;;;;;;4977381;28;20218;-83
2021/07/29 03:24:32;;;;;;;0.88;0.80;;;15.80;99.90;;;;;;4976807;28;20334;-83
2021/07/29 03:26:57;;;;;;;1.38;0.80;;;15.80;99.90;;;;;;4976926;28;20565;-84
2021/07/29 03:29:27;;;;;;;1.77;1.23;;;15.80;99.90;;;;;;4992323;28;20207;-83
2021/07/29 03:31:56;;;;;;;0.75;0.75;;;15.90;99.90;;;;;;4992031;28;20247;-84
2021/07/29 03:34:21;;;;;;;0.85;0.85;;;16.00;99.90;;;;;;4975712;28;20258;-84
2021/07/29 03:36:48;;;;;;;1.48;1.00;;;16.00;99.90;;;;;;4991519;28;20204;-84
2021/07/29 03:39:13;;;;;;;2.35;1.52;;;16.00;99.90;;;;;;4978319;28;20215;-83
2021/07/29 03:41:39;;;;;;;0.95;0.85;;;16.00;99.90;;;;;;4979942;28;20208;-84
2021/07/29 03:44:05;;;;;;;0.57;0.57;;;16.00;99.90;;;;;;4992629;28;20203;-85
2021/07/29 03:46:31;;;;;;;0.77;0.77;;;15.90;99.90;;;;;;4991931;28;20204;-86
2021/07/29 03:48:57;;;;;;;0.73;0.73;;;16.00;99.90;;;;;;4991448;28;20298;-85
2021/07/29 03:51:24;;;;;;;0.75;0.75;;;16.00;99.90;;;;;;4974034;28;20243;-85
2021/07/29 03:53:50;;;;;;;0.50;0.50;;;16.00;99.90;;;;;;4989586;28;20200;-85
2021/07/29 03:56:16;;;;;;;0.60;0.60;;;16.00;99.90;;;;;;4973806;28;20196;-84
2021/07/29 03:58:41;;;;;;;1.15;1.05;;;16.10;99.90;;;;;;5008054;28;20207;-85
2021/07/29 04:01:09;;;;;;;0.80;0.80;;;16.10;99.90;;;;;;4991574;28;20208;-85
2021/07/29 04:03:35;;;;;;;1.52;1.42;;;16.10;99.90;;;;;;4990789;28;20667;-85
2021/07/29 04:06:01;;;;;;;1.95;0.90;;;16.20;99.90;;;;;;4975000;28;20219;-85
2021/07/29 04:08:27;;;;;;;0.80;0.80;;;16.30;99.90;;;;;;4973782;28;20204;-84
2021/07/29 04:11:07;;;;;;;0.47;0.47;;;16.40;99.90;;;;;;4974864;28;20696;-84
2021/07/29 04:13:32;;;;;;;0.68;0.68;;;16.50;99.90;;;;;;4990060;28;20204;-84
2021/07/29 04:16:05;;;;;;;1.83;1.42;;;16.50;99.90;;;;;;4973896;28;20251;-85
2021/07/29 04:18:31;;;;;;;1.33;1.15;;;16.50;99.90;;;;;;4974336;28;20208;-85
2021/07/29 04:20:58;;;;;;;1.30;0.70;;;16.60;99.90;;;;;;4960144;28;20260;-85
2021/07/29 04:23:24;;;;;;;0.82;0.82;;;16.60;99.90;;;;;;4974244;28;20746;-85
2021/07/29 04:25:49;;;;;;;2.17;1.33;;;16.60;99.90;;;;;;4974382;28;20208;-85
2021/07/29 04:28:15;;;;;;;0.75;0.75;;;16.60;99.90;;;;;;4974437;28;20208;-85
2021/07/29 04:30:41;;;;;;;0.82;0.77;;;16.60;99.90;;;;;;4972291;28;20267;-85
2021/07/29 04:33:15;;;;;;;0.60;0.60;;;16.60;99.90;;;;;;4974779;28;20204;-86
2021/07/29 04:35:41;;;;;;;0.50;0.50;;;16.70;99.90;;;;;;4973333;28;20326;-86
2021/07/29 04:38:07;;;;;;;0.80;0.70;;;16.70;99.90;;;;;;4973789;28;20294;-86
2021/07/29 04:40:33;;;;;;;0.60;0.60;;;16.70;99.90;;;;;;4975393;28;20215;-86
2021/07/29 04:42:58;;;;;;;0.70;0.70;;;16.70;99.90;;;;;;4983361;28;20211;-86
2021/07/29 04:45:24;;;;;;;1.48;1.38;;;16.70;99.90;;;;;;4983226;28;20200;-86
2021/07/29 04:47:51;;;;;;;0.50;0.50;;;16.70;99.90;;;;;;4981047;28;20207;-86
2021/07/29 04:50:17;;;;;;;1.40;1.30;;;16.80;99.90;;;;;;4983685;28;20208;-86
2021/07/29 04:52:43;;;;;;;1.40;1.17;;;16.80;99.90;;;;;;4972859;28;20216;-85
2021/07/29 04:55:09;;;;;;;0.82;0.82;;;16.70;99.90;;;;;;4989180;28;20671;-86
2021/07/29 04:57:35;;;;;;;1.88;1.25;;;16.70;99.90;;;;;;4972508;28;20254;-85
2021/07/29 05:00:00;;;;;;;1.58;1.25;;;16.70;99.90;;;;;;4972945;28;20195;-85
2021/07/29 05:02:26;;;;;;;1.45;1.25;;;16.70;99.90;;;;;;4973393;28;20211;-85
2021/07/29 05:04:52;;;;;;;1.17;1.05;;;16.80;99.90;;;;;;4974018;28;20303;-85
2021/07/29 05:07:17;;;;;;;0.60;0.50;;;16.80;99.90;;;;;;4976271;28;20235;-84
2021/07/29 05:09:43;;;;;;;3.25;0.80;;;16.90;99.90;;;;;;4974417;28;20203;-85
2021/07/29 05:12:09;;;;;;;1.05;0.70;;;17.00;99.90;;;;;;4973741;28;20212;-85
2021/07/29 05:14:34;;;;;;;0.63;0.63;;;17.10;99.90;;;;;;4972261;28;20354;-85
2021/07/29 05:17:01;;;;;;;1.20;1.10;;;17.20;99.90;;;;;;4970594;28;20197;-85
2021/07/29 05:19:27;;;;;;;1.38;1.27;;;17.30;99.90;;;;;;4969612;28;20192;-84
2021/07/29 05:21:53;;;;;;;0.40;0.40;;;17.50;99.90;;;;;;4989810;28;20306;-84
2021/07/29 05:24:18;;;;;;;0.65;0.65;;;17.60;99.90;;;;;;4974122;28;20681;-84
2021/07/29 05:26:44;;;;;;;1.02;1.02;;;17.50;99.90;;;;;;4975187;28;20216;-74
2021/07/29 05:29:10;;;;;;;0.60;0.60;;;17.60;99.90;;;;;;4972634;28;20204;-74
2021/07/29 05:31:37;;;;;;;1.30;0.93;;;17.70;99.90;;;;;;4973274;28;20226;-73
2021/07/29 05:34:05;;;;;;;0.65;0.65;;;17.90;99.90;;;;;;4972579;28;20197;-74
2021/07/29 05:36:30;;;;;;;1.50;1.10;;;18.10;99.90;;;;;;4971027;28;20223;-73
2021/07/29 05:38:56;;;;;;;0.50;0.50;;;18.20;99.90;;;;;;4972532;28;20359;-74
2021/07/29 05:41:21;;;;;;;23.52;0.88;;;18.50;99.90;;;;;;4972402;28;20204;-73
2021/07/29 05:43:47;;;;;;;0.60;0.60;;;18.80;99.90;;;;;;4972326;28;20663;-74
2021/07/29 05:46:13;;;;;;;0.60;0.50;;;19.10;99.90;;;;;;4970884;28;20215;-74
2021/07/29 05:48:40;;;;;;;0.47;0.47;;;19.40;99.90;;;;;;4972274;28;20208;-74
2021/07/29 05:51:06;;;;;;;0.60;0.60;;;19.50;99.90;;;;;;4972306;28;20295;-74
2021/07/29 05:53:31;;;;;;;2.38;0.77;;;19.70;99.90;;;;;;4972128;28;20239;-74
2021/07/29 05:55:57;;;;;;;1.02;0.75;;;20.00;99.90;;;;;;4970610;28;20223;-74
2021/07/29 05:58:23;;;;;;;1.65;0.90;;;20.40;99.90;;;;;;4971062;28;20291;-74
2021/07/29 06:00:49;;;;;;;1.00;0.47;;;20.60;99.90;;;;;;4972207;28;20204;-73
2021/07/29 06:03:15;;;;;;;0.95;0.65;;;20.80;99.90;;;;;;4971345;28;20308;-73
2021/07/29 06:05:41;;;;;;;1.85;1.05;;;21.40;99.90;;;;;;4972502;28;20216;-73
2021/07/29 06:08:07;;;;;;;0.75;0.50;;;22.00;99.90;;;;;;4970557;28;20752;-73
2021/07/29 06:10:32;;;;;;;1.02;0.70;;;22.30;99.90;;;;;;4973189;28;20209;-73
2021/07/29 06:12:58;;;;;;;0.63;0.52;;;22.70;99.90;;;;;;4975491;28;20698;-73
2021/07/29 06:15:24;;;;;;;3.38;1.63;;;22.80;99.90;;;;;;4975380;28;20572;-72
2021/07/29 06:17:55;;;;;;;1.10;0.77;;;22.80;99.90;;;;;;4975356;28;20568;-72
2021/07/29 06:20:21;;;;;;;0.22;0.22;;;22.70;99.90;;;;;;4975368;28;20646;-72
2021/07/29 06:22:47;;;;;;;0.93;0.68;;;22.70;99.90;;;;;;4975674;28;20287;-73
2021/07/29 06:25:14;;;;;;;1.08;0.82;;;22.30;99.90;;;;;;4975366;28;20254;-72
2021/07/29 06:27:40;;;;;;;2.05;0.80;;;21.90;99.90;;;;;;4974857;28;20216;-72
2021/07/29 06:30:06;;;;;;;0.60;0.60;;;22.00;99.90;;;;;;4974310;28;20694;-73
2021/07/29 06:32:32;;;;;;;0.60;0.60;;;22.10;99.90;;;;;;4975068;28;20251;-72
2021/07/29 06:34:58;;;;;;;2.92;1.48;;;22.40;99.90;;;;;;4974935;28;20310;-72
2021/07/29 06:37:23;;;;;;;0.70;0.60;;;22.80;99.90;;;;;;4975008;28;20215;-73
2021/07/29 06:39:49;;;;;;;0.63;0.63;;;22.40;99.90;;;;;;4975227;28;20200;-72
2021/07/29 06:42:15;;;;;;;1.13;0.60;;;22.10;99.90;;;;;;4975487;28;20691;-72
2021/07/29 06:44:41;;;;;;;0.65;0.60;;;22.50;99.90;;;;;;4974856;28;20211;-72
2021/07/29 06:47:11;;;;;;;0.75;0.75;;;22.60;99.90;;;;;;4973755;28;20219;-72
2021/07/29 06:49:37;;;;;;;0.85;0.52;;;22.50;99.90;;;;;;4974182;28;20291;-72
2021/07/29 06:52:03;;;;;;;1.08;0.82;;;22.20;99.90;;;;;;4974203;28;20664;-72
2021/07/29 06:54:29;;;;;;;0.50;0.50;;;21.90;99.90;;;;;;4958535;28;20204;-73
2021/07/29 06:56:54;;;;;;;1.05;0.75;;;21.60;99.90;;;;;;4976210;28;20220;-78
2021/07/29 06:59:20;;;;;;;0.57;0.57;;;21.40;99.90;;;;;;4974718;28;20212;-75
2021/07/29 07:01:45;;;;;;;2.55;0.90;;;21.30;99.90;;;;;;4974866;28;20223;-76
2021/07/29 07:04:11;;;;;;;0.70;0.70;;;21.30;99.90;;;;;;4974596;28;20242;-75
2021/07/29 07:06:37;;;;;;;0.88;0.77;;;21.50;99.90;;;;;;4973269;28;20251;-76
2021/07/29 07:09:03;;;;;;;0.25;0.25;;;22.10;99.90;;;;;;4974548;28;20208;-76
2021/07/29 07:11:28;;;;;;;0.70;0.50;;;22.10;99.90;;;;;;4989294;28;20208;-75
2021/07/29 07:13:55;;;;;;;0.38;0.32;;;22.20;99.90;;;;;;4962369;28;20204;-75
2021/07/29 07:16:21;;;;;;;2.28;0.70;;;22.20;99.90;;;;;;4982567;28;20205;-75
2021/07/29 07:18:46;;;;;;;0.45;0.45;;;22.00;99.90;;;;;;4968944;28;20343;-73
2021/07/29 07:21:12;;;;;;;1.65;0.90;;;21.90;99.90;;;;;;4974258;28;20208;-73
2021/07/29 07:23:40;;;;;;;0.60;0.57;;;21.60;99.90;;;;;;4973856;28;20303;-73
2021/07/29 07:26:17;;;;;;;0.63;0.50;;;21.30;99.90;;;;;;4989310;28;20211;-73
2021/07/29 07:28:43;;;;;;;0.40;0.40;;;21.20;99.90;;;;;;4974178;28;20208;-73
2021/07/29 07:31:09;;;;;;;2.08;1.38;;;21.30;99.90;;;;;;4973199;28;20214;-73
2021/07/29 07:33:35;;;;;;;0.55;0.50;;;21.50;99.90;;;;;;4974017;28;20567;-72
2021/07/29 07:36:00;;;;;;;0.70;0.70;;;21.80;99.90;;;;;;4968599;28;20201;-72
2021/07/29 07:38:26;;;;;;;0.68;0.68;;;21.80;99.90;;;;;;4962407;28;20210;-72
2021/07/29 07:40:52;;;;;;;0.60;0.60;;;21.50;99.90;;;;;;4974220;28;20204;-72
2021/07/29 07:43:17;;;;;;;0.47;0.47;;;21.30;99.90;;;;;;4974011;28;20286;-76
2021/07/29 07:45:43;;;;;;;0.98;0.57;;;21.30;99.90;;;;;;4973671;28;20200;-73
2021/07/29 07:48:09;;;;;;;0.50;0.50;;;21.70;99.90;;;;;;4972935;28;20208;-73
2021/07/29 07:50:39;;;;;;;0.70;0.70;;;22.20;99.90;;;;;;4973533;28;20355;-73
2021/07/29 07:53:05;;;;;;;0.73;0.30;;;22.10;99.90;;;;;;4974116;28;20200;-73
2021/07/29 07:55:33;;;;;;;0.90;0.85;;;22.20;99.90;;;;;;4974142;28;20212;-74
2021/07/29 07:57:59;;;;;;;2.30;0.40;;;22.50;99.90;;;;;;4974688;28;20208;-74
2021/07/29 08:00:24;;;;;;;1.17;1.08;;;22.90;99.90;;;;;;4988334;28;20239;-74
2021/07/29 08:02:50;;;;;;;3.20;0.63;;;22.70;99.90;;;;;;4972993;28;20220;-74
2021/07/29 08:05:16;;;;;;;0.80;0.80;;;22.80;99.90;;;;;;4973963;28;20220;-74
2021/07/29 08:07:41;;;;;;;0.30;0.30;;;22.60;99.90;;;;;;4973464;28;20216;-76
2021/07/29 08:10:08;;;;;;;0.40;0.40;;;22.90;99.90;;;;;;4973234;28;20722;-76
2021/07/29 08:12:33;;;;;;;0.75;0.65;;;22.70;99.90;;;;;;4962365;28;20355;-77
2021/07/29 08:14:59;;;;;;;0.65;0.47;;;22.70;99.90;;;;;;4981571;28;20290;-77
2021/07/29 08:17:25;;;;;;;0.30;0.30;;;22.80;99.90;;;;;;4973182;28;20270;-74
2021/07/29 08:19:50;;;;;;;0.65;0.65;;;22.50;99.90;;;;;;4973466;28;20638;-75
2021/07/29 08:22:16;;;;;;;0.73;0.73;;;22.20;99.90;;;;;;4971854;28;20204;-72
2021/07/29 08:24:42;;;;;;;1.73;0.90;;;22.10;99.90;;;;;;4973015;28;20574;-74
2021/07/29 08:27:07;;;;;;;0.45;0.45;;;22.00;99.90;;;;;;4973291;28;20231;-75
2021/07/29 08:29:33;;;;;;;0.40;0.40;;;22.00;99.90;;;;;;4970194;28;20208;-75
2021/07/29 08:31:59;;;;;;;0.30;0.30;;;22.20;99.90;;;;;;4959087;28;20208;-73
2021/07/29 08:34:25;;;;;;;0.22;0.22;;;22.50;99.90;;;;;;4971001;28;20558;-73
2021/07/29 08:36:51;;;;;;;0.80;0.70;;;22.50;99.90;;;;;;4973238;28;20204;-73
2021/07/29 08:39:17;;;;;;;0.50;0.50;;;22.00;99.90;;;;;;4973632;28;20258;-73
2021/07/29 08:41:43;;;;;;;0.30;0.30;;;21.70;99.90;;;;;;4973706;28;20616;-75
2021/07/29 08:44:09;;;;;;;0.20;0.20;;;21.90;99.90;;;;;;4973134;28;20667;-74
2021/07/29 08:46:35;;;;;;;1.83;0.70;;;22.50;99.90;;;;;;4972625;28;20212;-74
2021/07/29 08:49:02;;;;;;;0.40;0.40;;;23.10;99.90;;;;;;4972893;28;20222;-74
2021/07/29 08:51:28;;;;;;;3.50;1.00;;;22.90;99.90;;;;;;4972764;28;20539;-74
2021/07/29 08:53:59;;;;;;;0.52;0.52;;;23.00;99.90;;;;;;4970973;28;20272;-74
2021/07/29 08:56:25;;;;;;;0.77;0.52;;;22.80;99.90;;;;;;4974001;28;20215;-79
2021/07/29 08:58:52;;;;;;;0.52;0.50;;;22.60;99.90;;;;;;4984063;28;20655;-74
2021/07/29 09:01:18;;;;;;;0.60;0.60;;;22.90;99.90;;;;;;4972500;28;20239;-74
2021/07/29 09:03:52;;;;;;;0.30;0.30;;;22.70;99.90;;;;;;4972209;28;20263;-74
2021/07/29 09:06:18;;;;;;;0.57;0.52;;;22.70;99.90;;;;;;4972650;28;20585;-76
2021/07/29 09:08:49;;;;;;;0.77;0.60;;;22.90;99.90;;;;;;4963365;28;20219;-75
2021/07/29 09:11:44;;;;;;;1.00;0.80;;;22.90;99.90;;;;;;4965403;28;20745;-74
2021/07/29 09:14:21;;;;;;;0.68;0.47;;;22.40;99.90;;;;;;4972150;28;20714;-75
2021/07/29 09:16:55;;;;;;;0.35;0.35;;;22.10;99.90;;;;;;4971583;28;20200;-74
2021/07/29 09:19:36;;;;;;;0.20;0.20;;;21.30;99.90;;;;;;4972502;28;20219;-76
2021/07/29 09:22:13;;;;;;;0.65;0.65;;;20.70;99.90;;;;;;4969201;28;20590;-72
2021/07/29 09:25:06;;;;;;;0.55;0.55;;;20.40;99.90;;;;;;4970700;28;20667;-73
2021/07/29 09:27:38;;;;;;;1.15;0.77;;;20.00;99.90;;;;;;4972740;28;20227;-73
2021/07/29 09:30:27;;;;;;;0.63;0.63;;;19.90;99.90;;;;;;4972046;28;20266;-72
2021/07/29 09:33:05;;;;;;;0.22;0.22;;;19.60;99.90;;;;;;4971492;28;20706;-72
2021/07/29 09:35:33;;;;;;;0.50;0.50;;;19.80;99.90;;;;;;4988098;28;20210;-72
2021/07/29 09:38:00;;;;;;;0.28;0.28;;;19.90;99.90;;;;;;4972560;28;20607;-77
2021/07/29 09:40:26;;;;;;;0.20;0.20;;;20.30;99.90;;;;;;4971502;28;20196;-73
2021/07/29 09:43:09;;;;;;;0.28;0.28;;;20.40;99.90;;;;;;4972692;28;20270;-72
2021/07/29 09:45:35;;;;;;;0.40;0.40;;;20.30;99.90;;;;;;4989095;28;20212;-73
2021/07/29 09:48:05;;;;;;;0.85;0.47;;;20.10;99.90;;;;;;4976340;28;20208;-72
2021/07/29 09:50:31;;;;;;;0.50;0.50;;;20.20;99.90;;;;;;4975785;28;20212;-72
2021/07/29 09:52:58;;;;;;;0.45;0.43;;;20.30;99.90;;;;;;4974929;28;20212;-75
2021/07/29 09:55:25;;;;;;;0.25;0.25;;;20.10;99.90;;;;;;4975836;28;20279;-75
2021/07/29 09:57:51;;;;;;;0.65;0.47;;;19.90;99.90;;;;;;4976185;28;20208;-75
2021/07/29 10:00:17;;;;;;;0.30;0.30;;;19.70;99.90;;;;;;4975922;28;20223;-75
2021/07/29 10:02:43;;;;;;;0.40;0.40;;;19.30;99.90;;;;;;4963153;28;20233;-74
2021/07/29 10:05:11;;;;;;;0.30;0.30;;;19.00;99.90;;;;;;4970668;28;20212;-74
2021/07/29 10:07:39;;;;;;;1.88;0.52;;;18.80;99.90;;;;;;4964411;28;20567;-75
2021/07/29 10:10:07;;;;;;;0.28;0.28;;;19.10;99.90;;;;;;4969932;28;20204;-75
2021/07/29 10:12:33;;;;;;;0.52;0.52;;;19.60;99.90;;;;;;4975302;28;20231;-75
2021/07/29 10:15:01;;;;;;;0.45;0.40;;;20.00;99.90;;;;;;4975796;28;20287;-76
2021/07/29 10:17:35;;;;;;;0.30;0.30;;;20.50;99.90;;;;;;4976015;28;20208;-72
2021/07/29 10:20:16;;;;;;;0.30;0.30;;;21.30;99.90;;;;;;4975629;28;20234;-73
2021/07/29 10:23:09;;;;;;;0.30;0.30;;;21.80;99.90;;;;;;4975076;28;20216;-72
2021/07/29 10:25:53;;;;;;;0.30;0.30;;;21.70;99.90;;;;;;4975104;28;20683;-75
2021/07/29 10:28:22;;;;;;;0.47;0.35;;;21.90;99.90;;;;;;4976086;28;20298;-75
2021/07/29 10:30:52;;;;;;;0.20;0.20;;;21.90;99.90;;;;;;4963539;28;20240;-75
2021/07/29 10:33:18;;;;;;;0.20;0.20;;;21.50;99.90;;;;;;4959161;28;20209;-75
2021/07/29 10:35:44;;;;;;;0.32;0.32;;;21.30;99.90;;;;;;4957063;28;20224;-75
2021/07/29 10:38:09;;;;;;;0.20;0.20;;;20.90;99.90;;;;;;4985356;28;20200;-74
2021/07/29 10:40:40;;;;;;;0.20;0.20;;;20.40;99.90;;;;;;4971698;28;20204;-75
2021/07/29 10:43:24;;;;;;;0.20;0.20;;;20.50;99.90;;;;;;4968865;28;20668;-75
2021/07/29 10:45:50;;;;;;;0.20;0.20;;;20.50;99.90;;;;;;4974730;28;20641;-75
2021/07/29 10:48:38;;;;;;;0.30;0.30;;;20.60;99.90;;;;;;4975136;28;20200;-76
2021/07/29 10:51:18;;;;;;;0.30;0.30;;;20.40;99.90;;;;;;4975227;28;20268;-75
2021/07/29 10:53:45;;;;;;;0.30;0.30;;;20.70;99.90;;;;;;4974770;28;20290;-76
2021/07/29 10:56:16;;;;;;;0.20;0.20;;;20.60;99.90;;;;;;4974330;28;20692;-72
2021/07/29 10:58:44;;;;;;;0.40;0.40;;;20.20;99.90;;;;;;4974374;28;20263;-71
2021/07/29 11:01:11;;;;;;;0.20;0.20;;;20.50;99.90;;;;;;4974678;28;20216;-72
2021/07/29 11:03:45;;;;;;;0.38;0.38;;;20.90;99.90;;;;;;4974129;28;20224;-72
2021/07/29 11:06:13;;;;;;;0.30;0.30;;;20.80;99.90;;;;;;4974766;28;20613;-72
2021/07/29 11:08:40;;;;;;;0.50;0.50;;;20.90;99.90;;;;;;4974792;28;20216;-75
2021/07/29 11:11:07;;;;;;;0.20;0.20;;;20.80;99.90;;;;;;4974398;28;20613;-76
2021/07/29 11:13:35;;;;;;;0.20;0.20;;;21.10;99.90;;;;;;4967324;28;20204;-76
2021/07/29 11:16:15;;;;;;;0.85;0.57;;;22.00;99.90;;;;;;4958646;28;20201;-83
2021/07/29 11:18:41;;;;;;;0.20;0.20;;;22.80;99.90;;;;;;4965697;28;20287;-83
2021/07/29 11:21:16;;;;;;;0.30;0.30;;;22.90;99.90;;;;;;4976767;28;20698;-83
2021/07/29 11:23:43;;;;;;;0.20;0.20;;;22.90;99.90;;;;;;4975847;28;20302;-83
2021/07/29 11:26:09;;;;;;;0.40;0.40;;;22.40;99.90;;;;;;4976632;28;20243;-83
2021/07/29 11:28:35;;;;;;;0.20;0.20;;;22.00;99.90;;;;;;4989011;28;20235;-82
2021/07/29 11:31:01;;;;;;;0.30;0.30;;;22.40;99.90;;;;;;4974199;28;20204;-83
2021/07/29 11:33:28;;;;;;;0.20;0.20;;;22.50;99.90;;;;;;4975062;28;20208;-83
2021/07/29 11:35:55;;;;;;;0.40;0.40;;;22.80;99.90;;;;;;4974243;28;20339;-83
2021/07/29 11:38:23;;;;;;;0.20;0.20;;;22.40;99.90;;;;;;4974884;28;20659;-83
2021/07/29 11:40:58;;;;;;;1.10;0.52;;;22.30;99.90;;;;;;4974784;28;20310;-84
2021/07/29 11:43:25;;;;;;;0.38;0.30;;;22.10;99.90;;;;;;4976004;28;20200;-82
2021/07/29 11:45:51;;;;;;;0.20;0.20;;;22.00;99.90;;;;;;4974215;28;20219;-83
2021/07/29 11:48:24;;;;;;;0.20;0.20;;;21.70;99.90;;;;;;4974783;28;20196;-82
2021/07/29 11:50:52;;;;;;;3.70;0.50;;;21.50;99.90;;;;;;4974602;28;20667;-83
2021/07/29 11:53:19;;;;;;;0.57;0.47;;;21.30;99.90;;;;;;4974219;28;20196;-82
2021/07/29 11:55:55;;;;;;;0.17;0.17;;;21.10;99.90;;;;;;4974148;28;20200;-84
2021/07/29 11:58:21;;;;;;;0.20;0.20;;;20.80;99.90;;;;;;4975065;28;20577;-83
2021/07/29 12:00:49;;;;;;;0.25;0.25;;;20.50;99.90;;;;;;4970505;28;20208;-83
2021/07/29 12:03:30;;;;;;;0.20;0.20;;;20.60;99.90;;;;;;4969925;28;20220;-84
2021/07/29 12:05:58;;;;;;;0.35;0.30;;;20.70;99.90;;;;;;4973122;28;20295;-84
2021/07/29 12:08:24;;;;;;;0.22;0.22;;;20.70;99.90;;;;;;4972416;28;20251;-83
2021/07/29 12:10:55;;;;;;;0.20;0.20;;;20.60;99.90;;;;;;4973519;28;20303;-84
2021/07/29 12:13:23;;;;;;;0.20;0.20;;;20.50;99.90;;;;;;4989749;28;20238;-83
2021/07/29 12:15:53;;;;;;;0.63;0.63;;;20.40;99.90;;;;;;4971171;28;20209;-83
2021/07/29 12:18:22;;;;;;;0.13;0.13;;;20.40;99.90;;;;;;4968810;28;20208;-83
2021/07/29 12:20:51;;;;;;;0.40;0.40;;;20.50;99.90;;;;;;4962380;28;20670;-83
2021/07/29 12:23:17;;;;;;;0.32;0.32;;;20.80;99.90;;;;;;4968589;28;20222;-83
2021/07/29 12:25:44;;;;;;;0.20;0.20;;;21.30;99.90;;;;;;4990018;28;20289;-83
2021/07/29 12:28:11;;;;;;;0.20;0.20;;;21.80;99.90;;;;;;4975111;28;20206;-83
2021/07/29 12:30:39;;;;;;;0.30;0.30;;;21.70;99.90;;;;;;4972986;28;20212;-82
2021/07/29 12:33:05;;;;;;;0.20;0.20;;;21.60;99.90;;;;;;4972936;28;20212;-83
2021/07/29 12:35:31;;;;;;;0.20;0.20;;;21.50;99.90;;;;;;4974323;28;20196;-83
2021/07/29 12:38:00;;;;;;;0.35;0.35;;;21.40;99.90;;;;;;4973752;28;20208;-83
2021/07/29 12:40:31;;;;;;;0.20;0.20;;;20.90;99.90;;;;;;4975888;28;20204;-82
2021/07/29 12:43:26;;;;;;;0.40;0.40;;;20.60;99.90;;;;;;4973645;28;20571;-83
2021/07/29 12:45:56;;;;;;;0.28;0.28;;;20.40;99.90;;;;;;4973322;28;20208;-83
2021/07/29 12:48:23;;;;;;;0.20;0.20;;;20.40;99.90;;;;;;4973532;28;20263;-82
2021/07/29 12:50:49;;;;;;;0.20;0.20;;;20.40;99.90;;;;;;4973499;28;20326;-83